sensor_id;sensor_type;location;lat;lon;timestamp;P1;durP1;ratioP1;P2;durP2;ratioP2
22284;SDS011;11311;52.192;20.900;2023-02-08T00:01:41;29.83;;;19.35;;
22284;SDS011;11311;52.192;20.900;2023-02-08T00:04:10;41.40;;;22.13;;
22284;SDS011;11311;52.192;20.900;2023-02-08T00:06:39;44.92;;;25.42;;
22284;SDS011;11311;52.192;20.900;2023-02-08T00:09:08;52.80;;;34.28;;
22284;SDS011;11311;52.192;20.900;2023-02-08T00:11:38;61.47;;;37.27;;
22284;SDS011;11311;52.192;20.900;2023-02-08T00:14:07;64.53;;;42.17;;
22284;SDS011;11311;52.192;20.900;2023-02-08T00:16:36;54.50;;;35.10;;
22284;SDS011;11311;52.192;20.900;2023-02-08T00:19:07;54.30;;;35.50;;
22284;SDS011;11311;52.192;20.900;2023-02-08T00:21:36;56.33;;;31.55;;
22284;SDS011;11311;52.192;20.900;2023-02-08T00:24:05;61.15;;;33.00;;
22284;SDS011;11311;52.192;20.900;2023-02-08T00:26:35;43.87;;;26.80;;
22284;SDS011;11311;52.192;20.900;2023-02-08T00:29:04;49.40;;;29.42;;
22284;SDS011;11311;52.192;20.900;2023-02-08T00:31:33;29.33;;;20.20;;
22284;SDS011;11311;52.192;20.900;2023-02-08T00:34:03;44.60;;;27.67;;
22284;SDS011;11311;52.192;20.900;2023-02-08T00:36:34;38.67;;;20.50;;
22284;SDS011;11311;52.192;20.900;2023-02-08T00:39:03;45.15;;;26.17;;
22284;SDS011;11311;52.192;20.900;2023-02-08T00:41:32;43.55;;;25.83;;
22284;SDS011;11311;52.192;20.900;2023-02-08T00:44:01;36.80;;;23.38;;
22284;SDS011;11311;52.192;20.900;2023-02-08T00:46:29;39.05;;;21.52;;
22284;SDS011;11311;52.192;20.900;2023-02-08T00:48:59;40.95;;;23.85;;
22284;SDS011;11311;52.192;20.900;2023-02-08T00:51:28;43.67;;;24.30;;
22284;SDS011;11311;52.192;20.900;2023-02-08T00:53:58;38.88;;;22.85;;
22284;SDS011;11311;52.192;20.900;2023-02-08T00:56:27;41.17;;;22.67;;
22284;SDS011;11311;52.192;20.900;2023-02-08T00:58:58;39.38;;;21.75;;
22284;SDS011;11311;52.192;20.900;2023-02-08T01:01:27;34.08;;;21.45;;
22284;SDS011;11311;52.192;20.900;2023-02-08T01:03:59;38.90;;;22.30;;
22284;SDS011;11311;52.192;20.900;2023-02-08T01:06:28;39.58;;;22.52;;
22284;SDS011;11311;52.192;20.900;2023-02-08T01:08:59;35.53;;;21.17;;
22284;SDS011;11311;52.192;20.900;2023-02-08T01:11:28;35.65;;;23.15;;
22284;SDS011;11311;52.192;20.900;2023-02-08T01:13:59;38.10;;;21.75;;
22284;SDS011;11311;52.192;20.900;2023-02-08T01:16:29;36.80;;;21.30;;
22284;SDS011;11311;52.192;20.900;2023-02-08T01:18:59;40.42;;;20.90;;
22284;SDS011;11311;52.192;20.900;2023-02-08T01:24:01;34.22;;;20.98;;
22284;SDS011;11311;52.192;20.900;2023-02-08T01:26:30;34.80;;;20.08;;
22284;SDS011;11311;52.192;20.900;2023-02-08T01:29:00;33.05;;;19.77;;
22284;SDS011;11311;52.192;20.900;2023-02-08T01:31:29;40.35;;;21.38;;
22284;SDS011;11311;52.192;20.900;2023-02-08T01:33:59;36.17;;;20.63;;
22284;SDS011;11311;52.192;20.900;2023-02-08T01:36:29;40.38;;;21.13;;
22284;SDS011;11311;52.192;20.900;2023-02-08T01:41:30;43.85;;;21.52;;
22284;SDS011;11311;52.192;20.900;2023-02-08T01:44:02;39.92;;;21.52;;
22284;SDS011;11311;52.192;20.900;2023-02-08T01:46:53;35.08;;;20.23;;
22284;SDS011;11311;52.192;20.900;2023-02-08T01:49:23;33.80;;;21.27;;
22284;SDS011;11311;52.192;20.900;2023-02-08T01:51:56;37.20;;;20.45;;
22284;SDS011;11311;52.192;20.900;2023-02-08T01:54:29;34.45;;;20.75;;
22284;SDS011;11311;52.192;20.900;2023-02-08T01:57:04;38.63;;;20.75;;
22284;SDS011;11311;52.192;20.900;2023-02-08T01:59:35;35.30;;;21.57;;
22284;SDS011;11311;52.192;20.900;2023-02-08T02:02:09;39.83;;;22.77;;
22284;SDS011;11311;52.192;20.900;2023-02-08T02:04:39;37.53;;;21.45;;
22284;SDS011;11311;52.192;20.900;2023-02-08T02:07:09;27.23;;;17.00;;
22284;SDS011;11311;52.192;20.900;2023-02-08T02:09:42;35.42;;;21.88;;
22284;SDS011;11311;52.192;20.900;2023-02-08T02:12:12;41.40;;;21.95;;
22284;SDS011;11311;52.192;20.900;2023-02-08T02:14:42;39.10;;;21.90;;
22284;SDS011;11311;52.192;20.900;2023-02-08T02:17:12;27.20;;;15.43;;
22284;SDS011;11311;52.192;20.900;2023-02-08T02:19:44;36.58;;;20.38;;
22284;SDS011;11311;52.192;20.900;2023-02-08T02:22:23;34.67;;;20.85;;
22284;SDS011;11311;52.192;20.900;2023-02-08T02:25:16;33.63;;;20.58;;
22284;SDS011;11311;52.192;20.900;2023-02-08T02:28:17;32.72;;;19.33;;
22284;SDS011;11311;52.192;20.900;2023-02-08T02:34:21;32.65;;;20.60;;
22284;SDS011;11311;52.192;20.900;2023-02-08T02:36:56;38.85;;;19.85;;
22284;SDS011;11311;52.192;20.900;2023-02-08T02:39:31;35.45;;;20.75;;
22284;SDS011;11311;52.192;20.900;2023-02-08T02:42:06;35.13;;;21.13;;
22284;SDS011;11311;52.192;20.900;2023-02-08T02:45:01;34.15;;;19.15;;
22284;SDS011;11311;52.192;20.900;2023-02-08T02:47:36;34.58;;;20.42;;
22284;SDS011;11311;52.192;20.900;2023-02-08T02:50:11;32.10;;;19.88;;
22284;SDS011;11311;52.192;20.900;2023-02-08T02:52:47;36.75;;;20.52;;
22284;SDS011;11311;52.192;20.900;2023-02-08T02:55:22;34.03;;;20.33;;
22284;SDS011;11311;52.192;20.900;2023-02-08T02:57:53;30.85;;;20.13;;
22284;SDS011;11311;52.192;20.900;2023-02-08T03:01:04;36.35;;;20.33;;
22284;SDS011;11311;52.192;20.900;2023-02-08T03:04:14;26.48;;;15.55;;
22284;SDS011;11311;52.192;20.900;2023-02-08T03:07:36;36.58;;;20.70;;
22284;SDS011;11311;52.192;20.900;2023-02-08T03:10:59;37.88;;;17.92;;
22284;SDS011;11311;52.192;20.900;2023-02-08T03:14:24;38.42;;;18.98;;
22284;SDS011;11311;52.192;20.900;2023-02-08T03:17:43;37.85;;;21.60;;
22284;SDS011;11311;52.192;20.900;2023-02-08T03:21:00;32.80;;;19.10;;
22284;SDS011;11311;52.192;20.900;2023-02-08T03:24:16;33.15;;;19.85;;
22284;SDS011;11311;52.192;20.900;2023-02-08T03:27:31;35.47;;;17.90;;
22284;SDS011;11311;52.192;20.900;2023-02-08T03:30:44;34.55;;;18.92;;
22284;SDS011;11311;52.192;20.900;2023-02-08T03:33:59;34.10;;;20.00;;
22284;SDS011;11311;52.192;20.900;2023-02-08T03:37:15;31.85;;;19.65;;
22284;SDS011;11311;52.192;20.900;2023-02-08T03:40:34;38.58;;;20.90;;
22284;SDS011;11311;52.192;20.900;2023-02-08T03:43:46;34.95;;;19.60;;
22284;SDS011;11311;52.192;20.900;2023-02-08T03:46:59;32.95;;;19.98;;
22284;SDS011;11311;52.192;20.900;2023-02-08T03:50:11;36.40;;;20.33;;
22284;SDS011;11311;52.192;20.900;2023-02-08T03:53:23;34.13;;;19.88;;
22284;SDS011;11311;52.192;20.900;2023-02-08T03:56:37;35.38;;;21.92;;
22284;SDS011;11311;52.192;20.900;2023-02-08T03:59:52;34.78;;;20.80;;
22284;SDS011;11311;52.192;20.900;2023-02-08T04:03:04;37.67;;;20.50;;
22284;SDS011;11311;52.192;20.900;2023-02-08T04:06:16;37.17;;;20.88;;
22284;SDS011;11311;52.192;20.900;2023-02-08T04:09:25;39.83;;;21.83;;
22284;SDS011;11311;52.192;20.900;2023-02-08T04:12:36;35.10;;;21.10;;
22284;SDS011;11311;52.192;20.900;2023-02-08T04:15:45;40.70;;;22.35;;
22284;SDS011;11311;52.192;20.900;2023-02-08T04:18:55;32.25;;;20.50;;
22284;SDS011;11311;52.192;20.900;2023-02-08T04:22:04;33.97;;;20.83;;
22284;SDS011;11311;52.192;20.900;2023-02-08T04:25:14;37.10;;;21.42;;
22284;SDS011;11311;52.192;20.900;2023-02-08T04:28:24;25.63;;;15.37;;
22284;SDS011;11311;52.192;20.900;2023-02-08T04:31:34;34.22;;;20.55;;
22284;SDS011;11311;52.192;20.900;2023-02-08T04:34:43;39.77;;;21.90;;
22284;SDS011;11311;52.192;20.900;2023-02-08T04:37:53;34.22;;;22.08;;
22284;SDS011;11311;52.192;20.900;2023-02-08T04:41:02;37.15;;;20.85;;
22284;SDS011;11311;52.192;20.900;2023-02-08T04:44:13;39.87;;;22.20;;
22284;SDS011;11311;52.192;20.900;2023-02-08T04:47:22;35.33;;;21.27;;
22284;SDS011;11311;52.192;20.900;2023-02-08T04:50:32;32.70;;;21.87;;
22284;SDS011;11311;52.192;20.900;2023-02-08T04:53:42;37.42;;;21.02;;
22284;SDS011;11311;52.192;20.900;2023-02-08T04:56:51;42.38;;;21.98;;
22284;SDS011;11311;52.192;20.900;2023-02-08T05:00:02;33.67;;;20.98;;
22284;SDS011;11311;52.192;20.900;2023-02-08T05:03:12;40.15;;;22.08;;
22284;SDS011;11311;52.192;20.900;2023-02-08T05:06:24;34.22;;;20.45;;
22284;SDS011;11311;52.192;20.900;2023-02-08T05:09:33;37.63;;;21.67;;
22284;SDS011;11311;52.192;20.900;2023-02-08T05:12:42;38.65;;;23.13;;
22284;SDS011;11311;52.192;20.900;2023-02-08T05:15:54;33.25;;;21.02;;
22284;SDS011;11311;52.192;20.900;2023-02-08T05:19:03;41.88;;;26.60;;
22284;SDS011;11311;52.192;20.900;2023-02-08T05:22:13;39.53;;;24.10;;
22284;SDS011;11311;52.192;20.900;2023-02-08T05:25:23;42.92;;;25.13;;
22284;SDS011;11311;52.192;20.900;2023-02-08T05:28:32;44.28;;;26.60;;
22284;SDS011;11311;52.192;20.900;2023-02-08T05:31:43;28.85;;;17.98;;
22284;SDS011;11311;52.192;20.900;2023-02-08T05:34:53;43.08;;;25.67;;
22284;SDS011;11311;52.192;20.900;2023-02-08T05:38:02;28.73;;;18.10;;
22284;SDS011;11311;52.192;20.900;2023-02-08T05:41:11;45.38;;;26.58;;
22284;SDS011;11311;52.192;20.900;2023-02-08T05:44:21;47.50;;;28.13;;
22284;SDS011;11311;52.192;20.900;2023-02-08T05:47:31;44.47;;;25.73;;
22284;SDS011;11311;52.192;20.900;2023-02-08T05:50:41;45.22;;;25.60;;
22284;SDS011;11311;52.192;20.900;2023-02-08T05:53:53;42.83;;;26.10;;
22284;SDS011;11311;52.192;20.900;2023-02-08T05:57:03;39.25;;;24.40;;
22284;SDS011;11311;52.192;20.900;2023-02-08T06:00:13;51.00;;;26.83;;
22284;SDS011;11311;52.192;20.900;2023-02-08T06:03:24;44.50;;;26.10;;
22284;SDS011;11311;52.192;20.900;2023-02-08T06:06:34;50.80;;;26.52;;
22284;SDS011;11311;52.192;20.900;2023-02-08T06:09:43;38.88;;;25.73;;
22284;SDS011;11311;52.192;20.900;2023-02-08T06:12:54;42.85;;;26.20;;
22284;SDS011;11311;52.192;20.900;2023-02-08T06:16:04;41.78;;;26.33;;
22284;SDS011;11311;52.192;20.900;2023-02-08T06:19:16;52.20;;;26.27;;
22284;SDS011;11311;52.192;20.900;2023-02-08T06:22:25;45.58;;;26.38;;
22284;SDS011;11311;52.192;20.900;2023-02-08T06:25:35;49.13;;;29.07;;
22284;SDS011;11311;52.192;20.900;2023-02-08T06:28:44;52.85;;;29.13;;
22284;SDS011;11311;52.192;20.900;2023-02-08T06:31:53;56.45;;;31.98;;
22284;SDS011;11311;52.192;20.900;2023-02-08T06:35:04;59.17;;;33.50;;
22284;SDS011;11311;52.192;20.900;2023-02-08T06:38:14;55.72;;;31.52;;
22284;SDS011;11311;52.192;20.900;2023-02-08T06:41:23;53.20;;;30.10;;
22284;SDS011;11311;52.192;20.900;2023-02-08T06:44:33;41.63;;;23.42;;
22284;SDS011;11311;52.192;20.900;2023-02-08T06:47:43;57.58;;;33.95;;
22284;SDS011;11311;52.192;20.900;2023-02-08T06:50:54;45.22;;;25.25;;
22284;SDS011;11311;52.192;20.900;2023-02-08T06:54:03;64.05;;;35.65;;
22284;SDS011;11311;52.192;20.900;2023-02-08T06:57:13;62.00;;;35.03;;
22284;SDS011;11311;52.192;20.900;2023-02-08T07:00:22;55.33;;;34.20;;
22284;SDS011;11311;52.192;20.900;2023-02-08T07:03:32;60.90;;;36.25;;
22284;SDS011;11311;52.192;20.900;2023-02-08T07:06:44;56.38;;;34.63;;
22284;SDS011;11311;52.192;20.900;2023-02-08T07:09:55;61.08;;;36.63;;
22284;SDS011;11311;52.192;20.900;2023-02-08T07:13:05;58.65;;;37.03;;
22284;SDS011;11311;52.192;20.900;2023-02-08T07:16:14;50.75;;;24.63;;
22284;SDS011;11311;52.192;20.900;2023-02-08T07:19:24;62.47;;;36.73;;
22284;SDS011;11311;52.192;20.900;2023-02-08T07:22:35;60.73;;;34.33;;
22284;SDS011;11311;52.192;20.900;2023-02-08T07:25:44;61.88;;;33.55;;
22284;SDS011;11311;52.192;20.900;2023-02-08T07:28:53;63.90;;;36.05;;
22284;SDS011;11311;52.192;20.900;2023-02-08T07:32:03;55.17;;;34.10;;
22284;SDS011;11311;52.192;20.900;2023-02-08T07:38:25;50.20;;;25.80;;
22284;SDS011;11311;52.192;20.900;2023-02-08T07:41:36;54.53;;;28.27;;
22284;SDS011;11311;52.192;20.900;2023-02-08T07:44:45;61.60;;;31.60;;
22284;SDS011;11311;52.192;20.900;2023-02-08T07:47:54;52.17;;;26.45;;
22284;SDS011;11311;52.192;20.900;2023-02-08T07:51:04;50.53;;;28.70;;
22284;SDS011;11311;52.192;20.900;2023-02-08T07:54:15;52.78;;;31.77;;
22284;SDS011;11311;52.192;20.900;2023-02-08T07:57:24;57.50;;;26.48;;
22284;SDS011;11311;52.192;20.900;2023-02-08T08:00:34;50.47;;;29.30;;
22284;SDS011;11311;52.192;20.900;2023-02-08T08:03:43;41.70;;;25.42;;
22284;SDS011;11311;52.192;20.900;2023-02-08T08:06:52;33.47;;;18.92;;
22284;SDS011;11311;52.192;20.900;2023-02-08T08:10:03;35.30;;;19.27;;
22284;SDS011;11311;52.192;20.900;2023-02-08T08:13:13;55.95;;;31.98;;
22284;SDS011;11311;52.192;20.900;2023-02-08T08:16:23;45.15;;;23.35;;
22284;SDS011;11311;52.192;20.900;2023-02-08T08:19:32;52.30;;;31.20;;
22284;SDS011;11311;52.192;20.900;2023-02-08T08:22:42;52.78;;;31.60;;
22284;SDS011;11311;52.192;20.900;2023-02-08T08:25:52;51.25;;;28.88;;
22284;SDS011;11311;52.192;20.900;2023-02-08T08:29:02;49.45;;;29.30;;
22284;SDS011;11311;52.192;20.900;2023-02-08T08:32:12;55.25;;;31.92;;
22284;SDS011;11311;52.192;20.900;2023-02-08T08:35:22;53.88;;;29.73;;
22284;SDS011;11311;52.192;20.900;2023-02-08T08:41:43;44.75;;;28.08;;
22284;SDS011;11311;52.192;20.900;2023-02-08T08:44:53;41.63;;;19.83;;
22284;SDS011;11311;52.192;20.900;2023-02-08T08:51:13;66.45;;;33.47;;
22284;SDS011;11311;52.192;20.900;2023-02-08T08:54:23;51.97;;;27.30;;
22284;SDS011;11311;52.192;20.900;2023-02-08T08:57:34;28.52;;;16.75;;
22284;SDS011;11311;52.192;20.900;2023-02-08T09:00:44;54.13;;;33.35;;
22284;SDS011;11311;52.192;20.900;2023-02-08T09:03:55;44.72;;;22.13;;
22284;SDS011;11311;52.192;20.900;2023-02-08T09:07:05;53.28;;;30.55;;
22284;SDS011;11311;52.192;20.900;2023-02-08T09:10:15;54.42;;;34.55;;
22284;SDS011;11311;52.192;20.900;2023-02-08T09:13:26;39.85;;;25.08;;
22284;SDS011;11311;52.192;20.900;2023-02-08T09:16:36;49.28;;;32.33;;
22284;SDS011;11311;52.192;20.900;2023-02-08T09:19:45;45.22;;;27.58;;
22284;SDS011;11311;52.192;20.900;2023-02-08T09:22:54;59.97;;;30.23;;
22284;SDS011;11311;52.192;20.900;2023-02-08T09:26:04;54.53;;;31.73;;
22284;SDS011;11311;52.192;20.900;2023-02-08T09:29:15;51.70;;;30.40;;
22284;SDS011;11311;52.192;20.900;2023-02-08T09:32:24;63.97;;;34.90;;
22284;SDS011;11311;52.192;20.900;2023-02-08T09:35:34;56.27;;;34.07;;
22284;SDS011;11311;52.192;20.900;2023-02-08T09:38:44;57.20;;;32.47;;
22284;SDS011;11311;52.192;20.900;2023-02-08T09:42:00;52.33;;;31.77;;
22284;SDS011;11311;52.192;20.900;2023-02-08T09:45:25;50.88;;;31.95;;
22284;SDS011;11311;52.192;20.900;2023-02-08T09:48:43;54.30;;;32.97;;
22284;SDS011;11311;52.192;20.900;2023-02-08T09:51:54;50.10;;;31.60;;
22284;SDS011;11311;52.192;20.900;2023-02-08T09:55:11;55.15;;;30.05;;
22284;SDS011;11311;52.192;20.900;2023-02-08T09:58:28;62.53;;;33.35;;
22284;SDS011;11311;52.192;20.900;2023-02-08T10:01:42;54.75;;;29.38;;
22284;SDS011;11311;52.192;20.900;2023-02-08T10:04:57;56.83;;;31.58;;
22284;SDS011;11311;52.192;20.900;2023-02-08T10:08:09;49.85;;;28.55;;
22284;SDS011;11311;52.192;20.900;2023-02-08T10:11:28;47.60;;;22.75;;
22284;SDS011;11311;52.192;20.900;2023-02-08T10:14:58;64.32;;;34.83;;
22284;SDS011;11311;52.192;20.900;2023-02-08T10:18:17;43.42;;;23.73;;
22284;SDS011;11311;52.192;20.900;2023-02-08T10:21:39;61.28;;;31.15;;
22284;SDS011;11311;52.192;20.900;2023-02-08T10:25:01;57.67;;;28.35;;
22284;SDS011;11311;52.192;20.900;2023-02-08T10:28:30;50.03;;;29.40;;
22284;SDS011;11311;52.192;20.900;2023-02-08T10:31:55;56.20;;;32.22;;
22284;SDS011;11311;52.192;20.900;2023-02-08T10:35:16;48.13;;;29.35;;
22284;SDS011;11311;52.192;20.900;2023-02-08T10:38:31;61.40;;;34.38;;
22284;SDS011;11311;52.192;20.900;2023-02-08T10:41:53;56.25;;;30.23;;
22284;SDS011;11311;52.192;20.900;2023-02-08T10:45:03;49.88;;;31.17;;
22284;SDS011;11311;52.192;20.900;2023-02-08T10:48:35;48.28;;;29.20;;
22284;SDS011;11311;52.192;20.900;2023-02-08T10:51:50;36.58;;;16.95;;
22284;SDS011;11311;52.192;20.900;2023-02-08T10:55:01;46.10;;;28.83;;
22284;SDS011;11311;52.192;20.900;2023-02-08T10:58:12;52.08;;;22.42;;
22284;SDS011;11311;52.192;20.900;2023-02-08T11:01:23;48.38;;;24.88;;
22284;SDS011;11311;52.192;20.900;2023-02-08T11:04:34;42.83;;;25.55;;
22284;SDS011;11311;52.192;20.900;2023-02-08T11:07:47;41.97;;;23.88;;
22284;SDS011;11311;52.192;20.900;2023-02-08T11:11:03;41.50;;;23.13;;
22284;SDS011;11311;52.192;20.900;2023-02-08T11:14:15;21.35;;;12.00;;
22284;SDS011;11311;52.192;20.900;2023-02-08T11:17:26;38.15;;;23.52;;
22284;SDS011;11311;52.192;20.900;2023-02-08T11:20:38;16.48;;;9.85;;
22284;SDS011;11311;52.192;20.900;2023-02-08T11:26:59;17.45;;;10.13;;
22284;SDS011;11311;52.192;20.900;2023-02-08T11:30:16;18.10;;;10.93;;
22284;SDS011;11311;52.192;20.900;2023-02-08T11:36:42;11.63;;;8.02;;
22284;SDS011;11311;52.192;20.900;2023-02-08T11:39:55;15.90;;;8.38;;
22284;SDS011;11311;52.192;20.900;2023-02-08T11:43:06;18.25;;;9.05;;
22284;SDS011;11311;52.192;20.900;2023-02-08T11:46:25;8.95;;;6.28;;
22284;SDS011;11311;52.192;20.900;2023-02-08T11:49:36;16.05;;;10.27;;
22284;SDS011;11311;52.192;20.900;2023-02-08T11:52:48;16.33;;;9.95;;
22284;SDS011;11311;52.192;20.900;2023-02-08T11:56:02;17.65;;;8.00;;
22284;SDS011;11311;52.192;20.900;2023-02-08T11:59:18;13.80;;;8.20;;
22284;SDS011;11311;52.192;20.900;2023-02-08T12:02:29;13.80;;;5.93;;
22284;SDS011;11311;52.192;20.900;2023-02-08T12:05:44;11.98;;;8.13;;
22284;SDS011;11311;52.192;20.900;2023-02-08T12:08:59;5.07;;;3.72;;
22284;SDS011;11311;52.192;20.900;2023-02-08T12:12:15;4.53;;;3.70;;
22284;SDS011;11311;52.192;20.900;2023-02-08T12:15:30;11.15;;;6.82;;
22284;SDS011;11311;52.192;20.900;2023-02-08T12:22:36;10.48;;;6.13;;
22284;SDS011;11311;52.192;20.900;2023-02-08T12:25:47;8.70;;;6.20;;
22284;SDS011;11311;52.192;20.900;2023-02-08T12:29:07;12.10;;;6.28;;
22284;SDS011;11311;52.192;20.900;2023-02-08T12:32:30;6.72;;;4.65;;
22284;SDS011;11311;52.192;20.900;2023-02-08T12:39:27;4.13;;;3.50;;
22284;SDS011;11311;52.192;20.900;2023-02-08T12:43:02;5.93;;;4.88;;
22284;SDS011;11311;52.192;20.900;2023-02-08T12:46:24;7.80;;;5.72;;
22284;SDS011;11311;52.192;20.900;2023-02-08T12:49:54;8.57;;;5.75;;
22284;SDS011;11311;52.192;20.900;2023-02-08T12:53:11;10.95;;;5.40;;
22284;SDS011;11311;52.192;20.900;2023-02-08T12:56:26;7.00;;;3.75;;
22284;SDS011;11311;52.192;20.900;2023-02-08T12:59:40;3.30;;;3.00;;
22284;SDS011;11311;52.192;20.900;2023-02-08T13:02:57;6.65;;;4.68;;
22284;SDS011;11311;52.192;20.900;2023-02-08T13:06:12;8.20;;;4.85;;
22284;SDS011;11311;52.192;20.900;2023-02-08T13:09:27;9.13;;;5.03;;
22284;SDS011;11311;52.192;20.900;2023-02-08T13:12:47;8.32;;;5.82;;
22284;SDS011;11311;52.192;20.900;2023-02-08T13:16:00;8.23;;;5.22;;
22284;SDS011;11311;52.192;20.900;2023-02-08T13:22:43;9.88;;;6.65;;
22284;SDS011;11311;52.192;20.900;2023-02-08T13:25:54;8.38;;;6.25;;
22284;SDS011;11311;52.192;20.900;2023-02-08T13:29:05;9.52;;;6.63;;
22284;SDS011;11311;52.192;20.900;2023-02-08T13:32:16;11.40;;;5.63;;
22284;SDS011;11311;52.192;20.900;2023-02-08T13:35:30;8.88;;;6.82;;
22284;SDS011;11311;52.192;20.900;2023-02-08T13:38:41;11.35;;;3.85;;
22284;SDS011;11311;52.192;20.900;2023-02-08T13:41:54;7.68;;;6.50;;
22284;SDS011;11311;52.192;20.900;2023-02-08T13:45:05;8.13;;;6.30;;
22284;SDS011;11311;52.192;20.900;2023-02-08T13:48:16;9.82;;;6.75;;
22284;SDS011;11311;52.192;20.900;2023-02-08T13:51:51;9.35;;;6.50;;
22284;SDS011;11311;52.192;20.900;2023-02-08T14:02:20;11.38;;;8.55;;
22284;SDS011;11311;52.192;20.900;2023-02-08T14:05:38;11.30;;;9.23;;
22284;SDS011;11311;52.192;20.900;2023-02-08T14:08:55;16.35;;;10.32;;
22284;SDS011;11311;52.192;20.900;2023-02-08T14:12:10;10.63;;;7.35;;
22284;SDS011;11311;52.192;20.900;2023-02-08T14:15:24;13.70;;;9.88;;
22284;SDS011;11311;52.192;20.900;2023-02-08T14:18:35;14.60;;;10.27;;
22284;SDS011;11311;52.192;20.900;2023-02-08T14:21:45;13.55;;;9.93;;
22284;SDS011;11311;52.192;20.900;2023-02-08T14:25:03;15.23;;;10.45;;
22284;SDS011;11311;52.192;20.900;2023-02-08T14:28:28;12.55;;;9.52;;
22284;SDS011;11311;52.192;20.900;2023-02-08T14:31:40;13.15;;;10.10;;
22284;SDS011;11311;52.192;20.900;2023-02-08T14:34:57;12.55;;;9.23;;
22284;SDS011;11311;52.192;20.900;2023-02-08T14:41:42;13.10;;;9.85;;
22284;SDS011;11311;52.192;20.900;2023-02-08T14:50:19;12.35;;;10.00;;
22284;SDS011;11311;52.192;20.900;2023-02-08T14:52:51;23.88;;;11.52;;
22284;SDS011;11311;52.192;20.900;2023-02-08T14:55:26;16.95;;;11.43;;
22284;SDS011;11311;52.192;20.900;2023-02-08T14:57:58;17.25;;;10.70;;
22284;SDS011;11311;52.192;20.900;2023-02-08T15:00:33;17.20;;;11.48;;
22284;SDS011;11311;52.192;20.900;2023-02-08T15:03:03;14.27;;;10.85;;
22284;SDS011;11311;52.192;20.900;2023-02-08T15:05:34;17.58;;;11.00;;
22284;SDS011;11311;52.192;20.900;2023-02-08T15:08:06;21.48;;;12.00;;
22284;SDS011;11311;52.192;20.900;2023-02-08T15:10:35;20.08;;;11.80;;
22284;SDS011;11311;52.192;20.900;2023-02-08T15:13:16;18.48;;;12.18;;
22284;SDS011;11311;52.192;20.900;2023-02-08T15:15:49;22.33;;;12.75;;
22284;SDS011;11311;52.192;20.900;2023-02-08T15:18:21;22.55;;;14.30;;
22284;SDS011;11311;52.192;20.900;2023-02-08T15:20:59;27.52;;;13.48;;
22284;SDS011;11311;52.192;20.900;2023-02-08T15:23:29;20.33;;;13.15;;
22284;SDS011;11311;52.192;20.900;2023-02-08T15:26:00;28.50;;;14.95;;
22284;SDS011;11311;52.192;20.900;2023-02-08T15:28:32;30.55;;;16.23;;
22284;SDS011;11311;52.192;20.900;2023-02-08T15:31:03;26.92;;;15.60;;
22284;SDS011;11311;52.192;20.900;2023-02-08T15:33:36;34.08;;;17.17;;
22284;SDS011;11311;52.192;20.900;2023-02-08T15:36:07;44.05;;;19.55;;
22284;SDS011;11311;52.192;20.900;2023-02-08T15:38:46;38.92;;;21.17;;
22284;SDS011;11311;52.192;20.900;2023-02-08T15:41:22;42.00;;;22.97;;
22284;SDS011;11311;52.192;20.900;2023-02-08T15:44:01;47.60;;;23.42;;
22284;SDS011;11311;52.192;20.900;2023-02-08T15:46:33;41.08;;;22.70;;
22284;SDS011;11311;52.192;20.900;2023-02-08T15:49:03;43.63;;;18.75;;
22284;SDS011;11311;52.192;20.900;2023-02-08T15:51:33;39.65;;;16.80;;
22284;SDS011;11311;52.192;20.900;2023-02-08T15:54:02;34.88;;;16.83;;
22284;SDS011;11311;52.192;20.900;2023-02-08T15:56:33;33.95;;;16.92;;
22284;SDS011;11311;52.192;20.900;2023-02-08T15:59:13;55.17;;;22.23;;
22284;SDS011;11311;52.192;20.900;2023-02-08T16:01:47;38.63;;;16.58;;
22284;SDS011;11311;52.192;20.900;2023-02-08T16:04:17;30.15;;;17.42;;
22284;SDS011;11311;52.192;20.900;2023-02-08T16:06:47;35.58;;;14.18;;
22284;SDS011;11311;52.192;20.900;2023-02-08T16:09:18;33.33;;;14.85;;
22284;SDS011;11311;52.192;20.900;2023-02-08T16:11:49;27.13;;;16.67;;
22284;SDS011;11311;52.192;20.900;2023-02-08T16:14:20;31.88;;;15.30;;
22284;SDS011;11311;52.192;20.900;2023-02-08T16:16:55;35.33;;;16.63;;
22284;SDS011;11311;52.192;20.900;2023-02-08T16:19:26;33.03;;;17.88;;
22284;SDS011;11311;52.192;20.900;2023-02-08T16:21:59;31.95;;;16.77;;
22284;SDS011;11311;52.192;20.900;2023-02-08T16:24:47;31.25;;;17.70;;
22284;SDS011;11311;52.192;20.900;2023-02-08T16:27:18;30.55;;;15.80;;
22284;SDS011;11311;52.192;20.900;2023-02-08T16:29:53;34.08;;;20.20;;
22284;SDS011;11311;52.192;20.900;2023-02-08T16:32:23;25.90;;;15.00;;
22284;SDS011;11311;52.192;20.900;2023-02-08T16:34:55;34.30;;;15.02;;
22284;SDS011;11311;52.192;20.900;2023-02-08T16:37:26;28.23;;;16.23;;
22284;SDS011;11311;52.192;20.900;2023-02-08T16:39:57;32.53;;;16.52;;
22284;SDS011;11311;52.192;20.900;2023-02-08T16:42:29;38.47;;;19.10;;
22284;SDS011;11311;52.192;20.900;2023-02-08T16:45:09;28.00;;;15.23;;
22284;SDS011;11311;52.192;20.900;2023-02-08T16:47:49;36.30;;;20.05;;
22284;SDS011;11311;52.192;20.900;2023-02-08T16:50:20;34.78;;;16.50;;
22284;SDS011;11311;52.192;20.900;2023-02-08T16:52:51;36.28;;;17.15;;
22284;SDS011;11311;52.192;20.900;2023-02-08T16:55:22;35.47;;;20.10;;
22284;SDS011;11311;52.192;20.900;2023-02-08T16:57:53;39.40;;;22.02;;
22284;SDS011;11311;52.192;20.900;2023-02-08T17:00:25;47.00;;;23.08;;
22284;SDS011;11311;52.192;20.900;2023-02-08T17:02:56;39.10;;;23.02;;
22284;SDS011;11311;52.192;20.900;2023-02-08T17:05:27;51.75;;;26.15;;
22284;SDS011;11311;52.192;20.900;2023-02-08T17:07:57;48.88;;;27.20;;
22284;SDS011;11311;52.192;20.900;2023-02-08T17:10:28;40.15;;;23.55;;
22284;SDS011;11311;52.192;20.900;2023-02-08T17:12:59;51.15;;;26.02;;
22284;SDS011;11311;52.192;20.900;2023-02-08T17:15:48;42.22;;;22.95;;
22284;SDS011;11311;52.192;20.900;2023-02-08T17:18:18;46.60;;;26.63;;
22284;SDS011;11311;52.192;20.900;2023-02-08T17:20:48;33.50;;;20.25;;
22284;SDS011;11311;52.192;20.900;2023-02-08T17:23:34;49.10;;;26.25;;
22284;SDS011;11311;52.192;20.900;2023-02-08T17:26:52;46.70;;;27.55;;
22284;SDS011;11311;52.192;20.900;2023-02-08T17:31:56;57.92;;;29.15;;
22284;SDS011;11311;52.192;20.900;2023-02-08T17:35:14;58.35;;;31.83;;
22284;SDS011;11311;52.192;20.900;2023-02-08T17:37:51;66.50;;;34.05;;
22284;SDS011;11311;52.192;20.900;2023-02-08T17:40:28;66.32;;;34.13;;
22284;SDS011;11311;52.192;20.900;2023-02-08T17:43:16;66.13;;;35.30;;
22284;SDS011;11311;52.192;20.900;2023-02-08T17:45:53;76.40;;;38.25;;
22284;SDS011;11311;52.192;20.900;2023-02-08T17:48:24;39.17;;;19.27;;
22284;SDS011;11311;52.192;20.900;2023-02-08T17:50:54;72.53;;;36.67;;
22284;SDS011;11311;52.192;20.900;2023-02-08T17:53:24;76.75;;;36.63;;
22284;SDS011;11311;52.192;20.900;2023-02-08T17:55:53;65.25;;;38.03;;
22284;SDS011;11311;52.192;20.900;2023-02-08T17:58:24;64.10;;;35.30;;